Pagina principale
METAR-TAF:

METAR-TAF

Aeroporti :

Payerne, Svizzera

latitudine: 46-49N, longitudine: 006-57E, altezza: 490 m

Osservazione

Il bollettino è stato emesso 35 minuti fa, alle 01:20 UTC
Vento calmo
Temperature -1°C
Umidità 100%
Pressione 1023 hPa
Visibilità: 0250 m
Poco nuvoloso ad un'altezza di 200 ft
nebbia

METAR: LSMP 250120Z AUTO 00000KT 0250NDV R23/0350N R05/0275N FG FEW002 M01/M01 Q1023 RMK

Ora: 02:55 (01:55 UTC)


TAF: mancante

Osservazioni e previsioni meteorologiche di più di 4000 aeroporti (messaggi METAR e TAF).

Le stazioni disponibili sono rappresentate dai dischi gialli e rossi sulla carta.

Puntare il mouse per vedere il nome della stazione.

Clicca sopra per visualizzare le osservazioni e previsioni meteorologiche.

Per cambiare la mappa : fare clic sui pulsanti verdi con una croce nera per ingrandire, il pulsante verde con un trattino per diminuire, o sulla freccia verde per le mappe adiacenti.


METAR-TAF: